createdAt,value
2022-11-24T00:01:30.394Z,11.60
2022-11-24T00:03:56.985Z,11.60
2022-11-24T00:06:24.159Z,11.60
2022-11-24T00:08:54.153Z,11.60
2022-11-24T00:11:27.970Z,11.60
2022-11-24T00:13:56.888Z,11.60
2022-11-24T00:16:25.704Z,11.60
2022-11-24T00:18:57.280Z,11.60
2022-11-24T00:21:24.549Z,11.60
2022-11-24T00:23:53.765Z,11.60
2022-11-24T00:26:21.492Z,11.60
2022-11-24T00:28:58.912Z,11.60
2022-11-24T00:31:27.449Z,11.60
2022-11-24T00:33:55.041Z,11.60
2022-11-24T00:36:24.532Z,11.60
2022-11-24T00:39:00.510Z,11.50
2022-11-24T00:41:27.699Z,11.60
2022-11-24T00:43:54.475Z,11.60
2022-11-24T00:46:22.839Z,11.60
2022-11-24T00:48:49.535Z,11.60
2022-11-24T00:51:26.908Z,11.70
2022-11-24T00:53:56.515Z,11.60
2022-11-24T00:56:28.124Z,11.70
2022-11-24T00:58:55.762Z,11.70
2022-11-24T01:01:23.760Z,11.70
2022-11-24T01:03:50.757Z,11.70
2022-11-24T01:06:20.907Z,11.70
2022-11-24T01:08:50.232Z,11.70
2022-11-24T01:11:55.120Z,11.70
2022-11-24T01:14:23.254Z,11.70
2022-11-24T01:16:54.899Z,11.70
2022-11-24T01:19:29.182Z,11.60
2022-11-24T01:21:56.565Z,11.60
2022-11-24T01:24:23.194Z,11.60
2022-11-24T01:26:49.800Z,11.60
2022-11-24T01:29:16.662Z,11.60
2022-11-24T01:31:45.182Z,11.60
2022-11-24T01:34:12.928Z,11.60
2022-11-24T01:36:39.582Z,11.50
2022-11-24T01:39:06.183Z,11.60
2022-11-24T01:41:35.524Z,11.50
2022-11-24T01:44:19.917Z,11.60
2022-11-24T01:46:49.834Z,11.50
2022-11-24T01:49:29.963Z,11.50
2022-11-24T01:52:06.479Z,11.60
2022-11-24T01:54:43.268Z,11.60
2022-11-24T01:57:15.027Z,11.60
2022-11-24T01:59:42.118Z,11.60
2022-11-24T02:02:16.453Z,11.60
2022-11-24T02:04:44.081Z,11.60
2022-11-24T02:07:12.713Z,11.70
2022-11-24T02:09:42.782Z,11.70
2022-11-24T02:12:09.362Z,11.70
2022-11-24T02:14:37.379Z,11.80
2022-11-24T02:17:03.915Z,11.80
2022-11-24T02:19:59.409Z,11.80
2022-11-24T02:22:36.834Z,11.80
2022-11-24T02:25:13.335Z,11.80
2022-11-24T02:27:41.803Z,11.90
2022-11-24T02:30:08.524Z,11.80
2022-11-24T02:32:35.359Z,11.80
2022-11-24T02:35:04.187Z,11.80
2022-11-24T02:37:33.209Z,11.80
2022-11-24T02:40:01.950Z,11.80
2022-11-24T02:42:34.155Z,11.80
2022-11-24T02:45:05.402Z,11.80
2022-11-24T02:47:31.959Z,11.80
2022-11-24T02:49:58.920Z,11.80
2022-11-24T02:52:28.731Z,11.80
2022-11-24T02:54:58.251Z,11.80
2022-11-24T02:57:24.792Z,11.80
2022-11-24T02:59:52.316Z,11.80
2022-11-24T03:02:21.408Z,11.80
2022-11-24T03:04:47.988Z,11.80
2022-11-24T03:07:14.703Z,11.80
2022-11-24T03:09:41.321Z,11.80
2022-11-24T03:12:10.563Z,11.90
2022-11-24T03:14:40.485Z,11.90
2022-11-24T03:17:07.120Z,11.90
2022-11-24T03:19:33.655Z,11.90
2022-11-24T03:22:00.334Z,12.00
2022-11-24T03:24:26.891Z,12.00
2022-11-24T03:26:55.687Z,12.10
2022-11-24T03:29:22.377Z,12.10
2022-11-24T03:31:48.922Z,12.10
2022-11-24T03:34:15.495Z,12.10
2022-11-24T03:36:44.171Z,12.20
2022-11-24T03:39:10.774Z,12.20
2022-11-24T03:41:37.334Z,12.20
2022-11-24T03:44:03.972Z,12.20
2022-11-24T03:46:35.246Z,12.20
2022-11-24T03:49:01.793Z,12.20
2022-11-24T03:51:32.990Z,12.20
2022-11-24T03:53:59.569Z,12.30
2022-11-24T03:56:28.584Z,12.30
2022-11-24T03:58:58.020Z,12.30
2022-11-24T04:01:24.588Z,12.30
2022-11-24T04:03:51.220Z,12.30
2022-11-24T04:06:17.810Z,12.30
2022-11-24T04:08:44.362Z,12.30
2022-11-24T04:11:30.865Z,12.30
2022-11-24T04:13:59.911Z,12.30
2022-11-24T04:16:26.507Z,12.30
2022-11-24T04:18:54.564Z,12.30
2022-11-24T04:21:21.255Z,12.30
2022-11-24T04:23:50.023Z,12.30
2022-11-24T04:26:16.794Z,12.20
2022-11-24T04:28:48.932Z,12.30
2022-11-24T04:31:23.688Z,12.30
2022-11-24T04:33:53.179Z,12.30
2022-11-24T04:36:21.339Z,12.30
2022-11-24T04:39:23.767Z,12.30
2022-11-24T04:41:40.159Z,12.30
2022-11-24T04:44:09.131Z,12.40
2022-11-24T04:46:35.714Z,12.30
2022-11-24T04:49:08.550Z,12.30
2022-11-24T04:51:38.410Z,12.40
2022-11-24T04:54:07.219Z,12.40
2022-11-24T04:56:34.918Z,12.40
2022-11-24T04:59:08.216Z,12.40
2022-11-24T05:01:39.866Z,12.40
2022-11-24T05:04:06.455Z,12.40
2022-11-24T05:06:33.215Z,12.40
2022-11-24T05:09:04.571Z,12.40
2022-11-24T05:11:33.372Z,12.40
2022-11-24T05:14:00.304Z,12.30
2022-11-24T05:16:26.924Z,12.30
2022-11-24T05:18:53.539Z,12.30
2022-11-24T05:21:23.392Z,12.30
2022-11-24T05:23:52.154Z,12.30
2022-11-24T05:26:18.748Z,12.20
2022-11-24T05:28:45.348Z,12.20
2022-11-24T05:31:11.906Z,12.20
2022-11-24T05:33:39.726Z,12.20
2022-11-24T05:36:09.294Z,12.20
2022-11-24T05:38:38.104Z,12.20
2022-11-24T05:41:05.372Z,12.20
2022-11-24T05:43:36.978Z,12.20
2022-11-24T05:46:03.609Z,12.20
2022-11-24T05:48:32.563Z,12.20
2022-11-24T05:50:59.119Z,12.10
2022-11-24T05:53:26.812Z,12.10
2022-11-24T05:55:55.573Z,12.10
2022-11-24T05:58:27.725Z,12.10
2022-11-24T06:00:54.305Z,12.10
2022-11-24T06:03:23.531Z,12.00
2022-11-24T06:05:50.069Z,12.00
2022-11-24T06:08:25.554Z,12.00
2022-11-24T06:10:54.731Z,11.90
2022-11-24T06:13:23.505Z,11.90
2022-11-24T06:15:50.100Z,11.90
2022-11-24T06:18:17.851Z,11.90
2022-11-24T06:21:02.789Z,11.80
2022-11-24T06:23:33.343Z,11.80
2022-11-24T06:26:02.181Z,11.80
2022-11-24T06:28:31.764Z,11.80
2022-11-24T06:31:06.428Z,11.70
2022-11-24T06:33:36.350Z,11.70
2022-11-24T06:36:04.658Z,11.70
2022-11-24T06:38:39.847Z,11.70
2022-11-24T06:41:07.601Z,11.70
2022-11-24T06:43:42.779Z,11.60
2022-11-24T06:46:09.807Z,11.60
2022-11-24T06:48:36.900Z,11.60
2022-11-24T06:51:13.217Z,11.60
2022-11-24T06:53:51.674Z,11.60
2022-11-24T06:56:21.166Z,11.50
2022-11-24T06:58:53.500Z,11.50
2022-11-24T07:01:24.323Z,11.60
2022-11-24T07:03:51.613Z,11.60
2022-11-24T07:06:27.140Z,11.60
2022-11-24T07:08:53.921Z,11.60
2022-11-24T07:11:21.763Z,11.70
2022-11-24T07:13:56.720Z,11.70
2022-11-24T07:16:30.993Z,11.70
2022-11-24T07:18:59.195Z,11.70
2022-11-24T07:21:28.792Z,11.80
2022-11-24T07:23:56.134Z,11.80
2022-11-24T07:26:23.381Z,11.90
2022-11-24T07:28:52.331Z,11.80
2022-11-24T07:31:22.046Z,11.90
2022-11-24T07:33:49.592Z,11.90
2022-11-24T07:36:18.368Z,12.00
2022-11-24T07:38:45.027Z,12.00
2022-11-24T07:41:17.053Z,11.90
2022-11-24T07:43:43.685Z,12.00
2022-11-24T07:46:11.940Z,12.00
2022-11-24T07:48:40.632Z,12.00
2022-11-24T07:51:09.071Z,12.10
2022-11-24T07:53:37.640Z,12.10
2022-11-24T07:56:10.375Z,12.10
2022-11-24T07:58:52.685Z,12.10
2022-11-24T08:01:23.724Z,12.10
2022-11-24T08:03:50.404Z,12.10
2022-11-24T08:06:28.572Z,12.10
2022-11-24T08:09:00.172Z,12.20
2022-11-24T08:11:31.637Z,12.20
2022-11-24T08:13:58.256Z,12.20
2022-11-24T08:16:24.852Z,12.10
2022-11-24T08:18:58.733Z,12.10
2022-11-24T08:21:25.578Z,12.10
2022-11-24T08:23:58.024Z,12.10
2022-11-24T08:26:25.781Z,12.10
2022-11-24T08:28:55.228Z,12.10
2022-11-24T08:31:21.826Z,12.10
2022-11-24T08:33:48.469Z,12.10
2022-11-24T08:36:16.782Z,12.10
2022-11-24T08:38:45.815Z,12.10
2022-11-24T08:41:14.372Z,12.20
2022-11-24T08:43:42.540Z,12.10
2022-11-24T08:46:10.628Z,12.10
2022-11-24T08:48:37.355Z,12.10
2022-11-24T08:51:09.835Z,12.10
2022-11-24T08:53:36.376Z,12.10
2022-11-24T08:56:05.579Z,12.10
2022-11-24T08:58:32.529Z,12.10
2022-11-24T09:01:05.270Z,12.10
2022-11-24T09:03:41.234Z,12.10
2022-11-24T09:06:11.080Z,12.10
2022-11-24T09:08:40.279Z,12.10
2022-11-24T09:11:12.624Z,12.20
2022-11-24T09:13:39.448Z,12.20
2022-11-24T09:16:10.083Z,12.30
2022-11-24T09:18:39.687Z,12.30
2022-11-24T09:21:10.295Z,12.30
2022-11-24T09:26:27.940Z,12.40
2022-11-24T09:29:04.264Z,12.40
2022-11-24T09:31:35.034Z,12.50
2022-11-24T09:34:04.743Z,12.40
2022-11-24T09:36:31.964Z,12.40
2022-11-24T09:39:05.739Z,12.40
2022-11-24T09:41:40.157Z,12.40
2022-11-24T09:44:25.174Z,12.40
2022-11-24T09:46:54.753Z,12.40
2022-11-24T09:49:29.632Z,12.40
2022-11-24T09:52:06.264Z,12.40
2022-11-24T09:54:35.559Z,12.50
2022-11-24T09:57:03.882Z,12.40
2022-11-24T09:59:30.491Z,12.40
2022-11-24T10:02:00.094Z,12.40
2022-11-24T10:04:46.510Z,12.50
2022-11-24T10:07:13.157Z,12.50
2022-11-24T10:09:45.852Z,12.50
2022-11-24T10:12:12.454Z,12.50
2022-11-24T10:14:49.597Z,12.50
2022-11-24T10:17:43.202Z,12.50
2022-11-24T10:20:23.736Z,12.50
2022-11-24T10:22:55.969Z,12.50
2022-11-24T10:25:30.035Z,12.60
2022-11-24T10:28:03.489Z,12.60
2022-11-24T10:30:32.503Z,12.60
2022-11-24T10:33:05.009Z,12.70
2022-11-24T10:35:40.448Z,12.70
2022-11-24T10:38:22.548Z,12.70
2022-11-24T10:40:59.306Z,12.80
2022-11-24T10:43:32.458Z,12.80
2022-11-24T10:46:12.170Z,12.80
2022-11-24T10:48:45.549Z,12.80
2022-11-24T10:51:30.111Z,12.90
2022-11-24T10:54:02.370Z,12.90
2022-11-24T10:56:40.797Z,12.90
2022-11-24T10:59:25.956Z,12.90
2022-11-24T11:01:54.729Z,13.00
2022-11-24T11:04:26.938Z,12.90
2022-11-24T11:07:06.869Z,13.00
2022-11-24T11:09:33.769Z,13.10
2022-11-24T11:12:36.226Z,13.10
2022-11-24T11:14:57.328Z,13.20
2022-11-24T11:17:34.569Z,13.20
2022-11-24T11:20:22.338Z,13.20
2022-11-24T11:22:49.796Z,13.20
2022-11-24T11:25:21.104Z,13.30
2022-11-24T11:27:48.216Z,13.30
2022-11-24T11:36:13.854Z,13.40
2022-11-24T11:38:42.968Z,13.50
2022-11-24T11:41:16.688Z,13.50
2022-11-24T11:43:45.927Z,13.50
2022-11-24T11:46:18.302Z,13.50
2022-11-24T11:48:46.631Z,13.60
2022-11-24T11:51:23.374Z,13.60
2022-11-24T11:54:04.000Z,13.60
2022-11-24T11:56:44.197Z,13.60
2022-11-24T11:59:15.846Z,13.70
2022-11-24T12:02:02.323Z,13.70
2022-11-24T12:04:37.293Z,13.70
2022-11-24T12:07:22.622Z,13.70
2022-11-24T12:10:03.070Z,13.70
2022-11-24T12:12:48.015Z,13.80
2022-11-24T12:15:34.252Z,13.80
2022-11-24T12:18:26.763Z,13.80
2022-11-24T12:21:14.784Z,13.80
2022-11-24T12:23:41.338Z,13.90
2022-11-24T12:26:15.882Z,13.90
2022-11-24T12:29:07.309Z,14.00
2022-11-24T12:31:40.824Z,14.00
2022-11-24T12:34:10.407Z,14.00
2022-11-24T12:36:49.140Z,14.00
2022-11-24T12:39:29.133Z,14.00
2022-11-24T12:42:22.924Z,14.10
2022-11-24T12:44:50.422Z,14.10
2022-11-24T12:47:34.096Z,14.10
2022-11-24T12:50:17.788Z,14.20
2022-11-24T12:52:48.335Z,14.20
2022-11-24T12:55:19.634Z,14.20
2022-11-24T12:57:54.718Z,14.30
2022-11-24T13:00:29.652Z,14.30
2022-11-24T13:03:14.784Z,14.30
2022-11-24T13:05:43.835Z,14.40
2022-11-24T13:08:11.795Z,14.40
2022-11-24T13:10:56.210Z,14.40
2022-11-24T13:13:27.568Z,14.40
2022-11-24T13:18:53.482Z,14.50
2022-11-24T13:21:36.259Z,14.50
2022-11-24T13:24:04.329Z,14.50
2022-11-24T13:26:43.194Z,14.50
2022-11-24T13:29:27.953Z,14.50
2022-11-24T13:32:14.797Z,14.60
2022-11-24T13:34:42.590Z,14.60
2022-11-24T13:37:34.411Z,14.60
2022-11-24T13:40:11.806Z,14.60
2022-11-24T13:43:02.855Z,14.60
2022-11-24T13:45:38.769Z,14.60
2022-11-24T13:48:21.366Z,14.70
2022-11-24T13:50:54.850Z,14.70
2022-11-24T13:53:31.937Z,14.70
2022-11-24T13:56:02.161Z,14.70
2022-11-24T13:58:38.852Z,14.70
2022-11-24T14:01:08.045Z,14.80
2022-11-24T14:03:36.272Z,14.80
2022-11-24T14:06:05.627Z,14.80
2022-11-24T14:08:38.638Z,14.80
2022-11-24T14:11:13.047Z,14.70
2022-11-24T14:13:39.671Z,14.70
2022-11-24T14:16:13.905Z,14.70
2022-11-24T14:18:46.799Z,14.70
2022-11-24T14:21:47.026Z,14.80
2022-11-24T14:24:26.130Z,14.70
2022-11-24T14:26:55.035Z,14.70
2022-11-24T14:29:22.255Z,14.70
2022-11-24T14:31:56.136Z,14.60
2022-11-24T14:34:30.959Z,14.60
2022-11-24T14:37:00.172Z,14.60
2022-11-24T14:39:27.477Z,14.60
2022-11-24T14:41:56.995Z,14.60
2022-11-24T14:44:28.478Z,14.50
2022-11-24T14:47:02.208Z,14.50
2022-11-24T14:49:28.943Z,14.50
2022-11-24T14:51:57.394Z,14.50
2022-11-24T14:54:24.551Z,14.50
2022-11-24T14:57:07.031Z,14.40
2022-11-24T14:59:34.591Z,14.40
2022-11-24T15:02:06.612Z,14.30
2022-11-24T15:05:04.121Z,14.30
2022-11-24T15:07:26.910Z,14.20
2022-11-24T15:09:57.570Z,14.20
2022-11-24T15:12:29.847Z,14.10
2022-11-24T15:14:58.537Z,14.10
2022-11-24T15:17:28.540Z,14.00
2022-11-24T15:20:05.448Z,13.90
2022-11-24T15:22:34.823Z,13.90
2022-11-24T15:25:06.764Z,13.80
2022-11-24T15:27:34.789Z,13.70
2022-11-24T15:30:06.216Z,13.70
2022-11-24T15:32:35.123Z,13.60
2022-11-24T15:35:03.716Z,13.60
2022-11-24T15:37:34.138Z,13.50
2022-11-24T15:40:02.967Z,13.40
2022-11-24T15:42:29.502Z,13.40
2022-11-24T15:44:56.036Z,13.30
2022-11-24T15:47:24.955Z,13.20
2022-11-24T15:49:53.247Z,13.20
2022-11-24T15:52:21.817Z,13.10
2022-11-24T15:54:50.105Z,13.10
2022-11-24T15:57:19.668Z,13.00
2022-11-24T15:59:48.290Z,13.00
2022-11-24T16:02:14.916Z,12.90
2022-11-24T16:04:41.622Z,12.90
2022-11-24T16:07:14.566Z,12.80
2022-11-24T16:09:43.312Z,12.80
2022-11-24T16:12:09.873Z,12.80
2022-11-24T16:14:37.029Z,12.70
2022-11-24T16:17:09.475Z,12.70
2022-11-24T16:19:42.035Z,12.60
2022-11-24T16:22:08.857Z,12.60
2022-11-24T16:24:35.678Z,12.60
2022-11-24T16:27:02.576Z,12.50
2022-11-24T16:29:31.833Z,12.50
2022-11-24T16:32:03.652Z,12.50
2022-11-24T16:34:33.915Z,12.40
2022-11-24T16:37:02.336Z,12.40
2022-11-24T16:39:31.747Z,12.40
2022-11-24T16:42:00.656Z,12.30
2022-11-24T16:44:27.172Z,12.30
2022-11-24T16:46:53.856Z,12.30
2022-11-24T16:49:20.363Z,12.20
2022-11-24T16:51:46.907Z,12.20
2022-11-24T16:54:13.455Z,12.10
2022-11-24T16:56:44.344Z,12.10
2022-11-24T16:59:13.069Z,12.10
2022-11-24T17:01:40.570Z,12.00
2022-11-24T17:04:12.382Z,12.00
2022-11-24T17:06:39.464Z,12.00
2022-11-24T17:09:08.430Z,11.90
2022-11-24T17:11:39.595Z,11.90
2022-11-24T17:14:11.531Z,11.90
2022-11-24T17:16:38.340Z,11.90
2022-11-24T17:19:07.775Z,11.90
2022-11-24T17:21:36.736Z,11.90
2022-11-24T17:24:06.982Z,11.80
2022-11-24T17:26:33.689Z,11.80
2022-11-24T17:29:03.364Z,11.80
2022-11-24T17:31:37.196Z,11.80
2022-11-24T17:34:07.174Z,11.80
2022-11-24T17:36:36.711Z,11.80
2022-11-24T17:39:06.915Z,11.80
2022-11-24T17:41:35.369Z,11.80
2022-11-24T17:44:02.682Z,11.80
2022-11-24T17:46:32.318Z,11.80
2022-11-24T17:49:01.158Z,11.80
2022-11-24T17:51:27.736Z,11.80
2022-11-24T17:53:57.446Z,11.80
2022-11-24T17:56:29.904Z,11.80
2022-11-24T17:59:00.827Z,11.70
2022-11-24T18:01:31.398Z,11.80
2022-11-24T18:04:06.171Z,11.80
2022-11-24T18:06:37.180Z,11.80
2022-11-24T18:09:03.762Z,11.80
2022-11-24T18:11:32.460Z,11.80
2022-11-24T18:14:03.093Z,11.70
2022-11-24T18:16:38.717Z,11.80
2022-11-24T18:19:10.755Z,11.80
2022-11-24T18:21:43.788Z,11.80
2022-11-24T18:24:12.977Z,11.70
2022-11-24T18:26:44.335Z,11.70
2022-11-24T18:29:11.328Z,11.70
2022-11-24T18:31:38.146Z,11.70
2022-11-24T18:34:05.307Z,11.60
2022-11-24T18:36:37.549Z,11.60
2022-11-24T18:39:06.221Z,11.60
2022-11-24T18:41:32.874Z,11.40
2022-11-24T18:44:07.872Z,11.50
2022-11-24T18:46:39.243Z,11.40
2022-11-24T18:49:08.350Z,11.40
2022-11-24T18:51:37.875Z,11.40
2022-11-24T18:54:05.240Z,11.30
2022-11-24T18:56:34.904Z,11.30
2022-11-24T18:59:01.464Z,11.30
2022-11-24T19:01:28.816Z,11.20
2022-11-24T19:04:00.704Z,11.20
2022-11-24T19:06:32.673Z,11.10
2022-11-24T19:09:24.282Z,11.10
2022-11-24T19:11:53.079Z,11.00
2022-11-24T19:14:19.754Z,11.00
2022-11-24T19:16:47.881Z,11.00
2022-11-24T19:19:16.120Z,11.00
2022-11-24T19:21:44.992Z,10.90
2022-11-24T19:24:13.898Z,10.80
2022-11-24T19:26:40.603Z,10.80
2022-11-24T19:29:08.504Z,10.80
2022-11-24T19:31:41.135Z,10.80
2022-11-24T19:34:09.894Z,10.70
2022-11-24T19:36:38.399Z,10.70
2022-11-24T19:39:08.389Z,10.60
2022-11-24T19:41:37.122Z,10.60
2022-11-24T19:44:06.039Z,10.60
2022-11-24T19:46:35.058Z,10.50
2022-11-24T19:49:04.545Z,10.50
2022-11-24T19:51:36.682Z,10.50
2022-11-24T19:54:06.636Z,10.40
2022-11-24T19:56:35.039Z,10.40
2022-11-24T19:59:06.561Z,10.40
2022-11-24T20:01:40.399Z,10.30
2022-11-24T20:04:11.487Z,10.30
2022-11-24T20:06:39.595Z,10.30
2022-11-24T20:09:07.472Z,10.30
2022-11-24T20:11:34.216Z,10.30
2022-11-24T20:14:06.367Z,10.20
2022-11-24T20:16:40.041Z,10.20
2022-11-24T20:19:09.843Z,10.20
2022-11-24T20:21:39.144Z,10.20
2022-11-24T20:24:07.148Z,10.20
2022-11-24T20:26:39.032Z,10.20
2022-11-24T20:29:09.876Z,10.10
2022-11-24T20:31:37.784Z,10.10
2022-11-24T20:34:08.738Z,10.10
2022-11-24T20:36:39.826Z,10.10
2022-11-24T20:39:10.432Z,10.10
2022-11-24T20:41:40.022Z,10.00
2022-11-24T20:44:10.565Z,10.00
2022-11-24T20:46:42.130Z,10.00
2022-11-24T20:49:14.800Z,10.00
2022-11-24T20:51:44.016Z,10.00
2022-11-24T20:54:12.981Z,10.00
2022-11-24T20:56:41.747Z,9.90
2022-11-24T20:59:12.954Z,9.90
2022-11-24T21:01:42.420Z,9.90
2022-11-24T21:04:13.544Z,9.90
2022-11-24T21:06:42.761Z,9.90
2022-11-24T21:09:09.752Z,9.90
2022-11-24T21:11:48.548Z,9.90
2022-11-24T21:14:15.186Z,9.90
2022-11-24T21:16:42.261Z,9.90
2022-11-24T21:19:13.483Z,9.90
2022-11-24T21:21:44.115Z,9.90
2022-11-24T21:24:18.235Z,9.90
2022-11-24T21:26:47.406Z,9.90
2022-11-24T21:29:15.015Z,9.90
2022-11-24T21:31:41.628Z,9.90
2022-11-24T21:34:11.154Z,9.90
2022-11-24T21:36:44.487Z,9.90
2022-11-24T21:39:15.650Z,10.00
2022-11-24T21:41:44.608Z,10.00
2022-11-24T21:44:14.127Z,10.10
2022-11-24T21:46:50.877Z,10.10
2022-11-24T21:49:19.121Z,10.20
2022-11-24T21:51:45.747Z,10.20
2022-11-24T21:54:17.066Z,10.20
2022-11-24T21:56:47.523Z,10.30
2022-11-24T21:59:14.073Z,10.30
2022-11-24T22:01:42.829Z,10.40
2022-11-24T22:04:09.396Z,10.40
2022-11-24T22:06:36.047Z,10.40
2022-11-24T22:09:02.568Z,10.50
2022-11-24T22:11:29.079Z,10.50
2022-11-24T22:13:56.591Z,10.50
2022-11-24T22:16:24.167Z,10.60
2022-11-24T22:18:53.094Z,10.60
2022-11-24T22:21:23.889Z,10.60
2022-11-24T22:23:51.404Z,10.60
2022-11-24T22:26:19.633Z,10.50
2022-11-24T22:28:47.096Z,10.50
2022-11-24T22:31:23.933Z,10.50
2022-11-24T22:33:50.984Z,10.50
2022-11-24T22:36:20.691Z,10.40
2022-11-24T22:38:51.466Z,10.40
2022-11-24T22:41:21.983Z,10.40
2022-11-24T22:43:48.551Z,10.30
2022-11-24T22:46:21.554Z,10.30
2022-11-24T22:48:52.763Z,10.30
2022-11-24T22:51:23.541Z,10.30
2022-11-24T22:53:51.739Z,10.20
2022-11-24T22:56:19.471Z,10.20
2022-11-24T22:58:49.853Z,10.30
2022-11-24T23:01:23.554Z,10.20
2022-11-24T23:03:50.676Z,10.20
2022-11-24T23:06:21.447Z,10.20
2022-11-24T23:08:51.010Z,10.20
2022-11-24T23:11:25.845Z,10.20
2022-11-24T23:13:56.523Z,10.20
2022-11-24T23:16:26.548Z,10.20
2022-11-24T23:18:54.198Z,10.30
2022-11-24T23:21:22.703Z,10.30
2022-11-24T23:23:52.907Z,10.30
2022-11-24T23:26:22.457Z,10.30
2022-11-24T23:28:54.046Z,10.30
2022-11-24T23:31:24.013Z,10.40
2022-11-24T23:33:53.002Z,10.40
2022-11-24T23:36:24.663Z,10.40
2022-11-24T23:38:51.279Z,10.40
2022-11-24T23:41:24.820Z,10.40
2022-11-24T23:43:54.848Z,10.40
2022-11-24T23:46:22.508Z,10.50
2022-11-24T23:48:56.123Z,10.50
2022-11-24T23:51:23.710Z,10.50
2022-11-24T23:53:52.829Z,10.50
2022-11-24T23:56:25.894Z,10.50
2022-11-24T23:58:54.671Z,10.50
